Time;durP1;ratioP1;P1;durP2;ratioP2;P2;SDS_P1;SDS_P2;PMS_P1;PMS_P2;Temp;Humidity;BMP_temperature;BMP_pressure;BME280_temperature;BME280_humidity;BME280_pressure;Samples;Min_cycle;Max_cycle;Signal;HPM_P1;HPM_P2
2023/06/09 00:02:13;;;;;;;;;25.00;24.33;;;;;22.48;64.50;100888.53;5040622;28;46286;-79
2023/06/09 00:04:38;;;;;;;;;23.33;23.33;;;;;22.51;64.84;100890.94;5047931;28;45246;-78
2023/06/09 00:07:04;;;;;;;;;24.33;21.67;;;;;22.42;63.76;100878.31;5038598;28;45419;-79
2023/06/09 00:09:30;;;;;;;;;29.33;27.33;;;;;22.44;65.11;100877.19;5048650;28;45540;-78
2023/06/09 00:11:56;;;;;;;;;22.67;21.00;;;;;22.41;64.84;100879.34;5069098;28;45673;-79
2023/06/09 00:14:21;;;;;;;;;26.67;24.00;;;;;22.40;65.42;100866.84;5064274;28;45379;-78
2023/06/09 00:16:47;;;;;;;;;27.67;26.00;;;;;22.36;64.36;100868.97;5050951;28;45340;-78
2023/06/09 00:19:15;;;;;;;;;26.00;22.33;;;;;22.33;64.93;100875.53;5054354;28;45565;-78
2023/06/09 00:21:43;;;;;;;;;27.00;25.33;;;;;22.25;64.76;100853.00;5051171;28;46527;-78
2023/06/09 00:24:08;;;;;;;;;24.67;23.00;;;;;22.26;65.36;100870.84;5066230;28;45439;-78
2023/06/09 00:26:33;;;;;;;;;21.67;21.33;;;;;22.21;65.91;100868.59;5079767;28;50683;-78
2023/06/09 00:28:59;;;;;;;;;27.00;24.33;;;;;22.21;65.99;100870.44;5045406;28;52421;-78
2023/06/09 00:31:24;;;;;;;;;26.00;24.33;;;;;22.10;65.50;100851.75;5067589;28;47909;-78
2023/06/09 00:33:49;;;;;;;;;26.67;25.33;;;;;22.02;65.70;100855.16;5053859;28;45346;-78
2023/06/09 00:36:15;;;;;;;;;25.33;23.67;;;;;22.09;67.32;100872.44;5058632;28;45324;-78
2023/06/09 00:38:40;;;;;;;;;28.00;28.00;;;;;22.03;66.43;100870.31;5054329;28;45332;-78
2023/06/09 00:41:06;;;;;;;;;27.00;25.00;;;;;22.01;67.73;100866.94;5058918;28;45408;-77
2023/06/09 00:43:31;;;;;;;;;26.00;25.00;;;;;22.01;69.12;100866.09;5058132;28;45454;-78
2023/06/09 00:46:00;;;;;;;;;24.33;24.33;;;;;21.92;69.19;100846.25;5059977;28;45253;-78
2023/06/09 00:48:25;;;;;;;;;24.33;21.33;;;;;21.89;69.31;100846.53;5059031;28;45489;-78
2023/06/09 00:50:51;;;;;;;;;23.00;22.67;;;;;21.90;69.36;100852.75;5067227;28;45427;-78
2023/06/09 00:53:16;;;;;;;;;27.00;24.33;;;;;21.78;68.98;100854.75;5040333;28;45348;-78
2023/06/09 00:55:42;;;;;;;;;28.00;25.00;;;;;21.76;69.69;100856.69;5063858;28;45451;-78
2023/06/09 00:58:08;;;;;;;;;30.33;27.33;;;;;21.67;69.95;100846.78;5067053;28;45264;-77
2023/06/09 01:00:35;;;;;;;;;23.67;23.67;;;;;21.69;71.12;100848.34;5059312;28;46575;-78
2023/06/09 01:03:02;;;;;;;;;25.33;25.00;;;;;21.60;71.90;100834.88;5060043;28;45721;-77
2023/06/09 01:05:32;;;;;;;;;22.00;22.00;;;;;21.56;71.01;100838.88;5053925;28;45844;-78
2023/06/09 01:08:17;;;;;;;;;26.67;24.00;;;;;21.55;71.12;100840.72;5053725;28;45510;-77
2023/06/09 01:10:59;;;;;;;;;31.67;27.00;;;;;21.46;72.31;100827.25;5060045;28;45402;-78
2023/06/09 01:13:33;;;;;;;;;25.33;23.33;;;;;21.44;71.44;100840.00;5046454;28;45370;-77
2023/06/09 01:16:05;;;;;;;;;26.00;26.00;;;;;21.37;74.15;100831.63;5072861;28;45308;-78
2023/06/09 01:18:33;;;;;;;;;29.33;26.67;;;;;21.18;73.27;100812.78;5039563;28;45725;-78
2023/06/09 01:21:12;;;;;;;;;28.33;27.67;;;;;21.27;72.97;100823.56;5041596;28;47518;-78
2023/06/09 01:24:00;;;;;;;;;28.33;24.33;;;;;21.26;73.50;100832.63;5064863;28;45276;-78
2023/06/09 01:26:28;;;;;;;;;28.67;27.33;;;;;21.18;73.79;100816.31;5048797;28;45571;-78
2023/06/09 01:28:55;;;;;;;;;27.00;26.33;;;;;21.17;73.49;100819.19;5069834;28;45370;-78
2023/06/09 01:31:22;;;;;;;;;24.33;24.33;;;;;21.14;73.32;100822.13;5043918;28;45452;-77
2023/06/09 01:33:48;;;;;;;;;26.00;24.00;;;;;21.08;73.73;100814.56;5059862;28;45470;-78
2023/06/09 01:36:15;;;;;;;;;28.33;25.67;;;;;21.14;74.88;100822.13;5040685;28;45456;-78
2023/06/09 01:38:41;;;;;;;;;28.00;24.67;;;;;21.08;71.47;100812.75;5059409;28;45727;-77
2023/06/09 01:41:07;;;;;;;;;25.67;22.67;;;;;21.08;72.80;100806.50;5060139;28;45296;-78
2023/06/09 01:43:32;;;;;;;;;29.33;27.00;;;;;21.02;72.62;100802.53;5051241;28;45495;-78
2023/06/09 01:45:58;;;;;;;;;25.00;23.67;;;;;21.13;71.74;100817.75;5062221;28;45332;-78
2023/06/09 01:48:49;;;;;;;;;24.67;23.67;;;;;21.05;71.47;100807.63;5040630;28;46633;-78
2023/06/09 01:51:46;;;;;;;;;26.67;25.00;;;;;21.02;71.61;100809.75;5056018;28;45529;-77
2023/06/09 01:54:16;;;;;;;;;23.00;22.00;;;;;20.92;71.73;100798.97;5062146;28;45355;-77
2023/06/09 01:56:49;;;;;;;;;27.33;23.00;;;;;20.98;72.25;100811.88;5075849;28;45439;-77
2023/06/09 01:59:24;;;;;;;;;28.33;27.00;;;;;20.96;72.30;100799.56;5053624;28;45442;-77
2023/06/09 02:01:52;;;;;;;;;24.33;21.33;;;;;21.01;73.71;100818.81;5058478;28;45980;-78
2023/06/09 02:04:21;;;;;;;;;22.00;22.00;;;;;20.89;72.18;100798.41;5074525;28;45383;-78
2023/06/09 02:06:47;;;;;;;;;24.00;20.00;;;;;20.97;72.97;100820.09;5049079;28;45398;-78
2023/06/09 02:09:14;;;;;;;;;28.33;22.67;;;;;20.94;72.25;100813.13;5043410;28;45511;-78
2023/06/09 02:11:39;;;;;;;;;24.33;24.00;;;;;20.91;72.54;100824.16;5045615;28;47146;-77
2023/06/09 02:14:05;;;;;;;;;28.67;26.67;;;;;20.90;72.56;100811.72;5043047;28;45453;-78
2023/06/09 02:16:30;;;;;;;;;30.00;26.00;;;;;20.85;73.39;100822.03;5053290;28;45428;-78
2023/06/09 02:18:57;;;;;;;;;24.00;23.33;;;;;20.83;72.85;100818.63;5037867;28;45359;-78
2023/06/09 02:21:22;;;;;;;;;26.00;24.33;;;;;20.79;75.12;100811.84;5036160;28;45348;-78
2023/06/09 02:23:48;;;;;;;;;25.33;22.67;;;;;20.76;74.61;100804.91;5035360;28;45308;-78
2023/06/09 02:26:13;;;;;;;;;26.00;25.00;;;;;20.64;75.60;100795.25;5056407;28;45245;-77
2023/06/09 02:28:39;;;;;;;;;27.33;25.33;;;;;20.69;76.75;100805.56;5055570;28;45558;-78
2023/06/09 02:31:05;;;;;;;;;26.00;26.00;;;;;20.65;75.82;100796.06;5031626;28;45392;-77
2023/06/09 02:33:30;;;;;;;;;27.00;25.33;;;;;20.48;76.18;100781.47;5037710;28;45325;-78
2023/06/09 02:35:57;;;;;;;;;27.33;26.00;;;;;20.52;76.76;100799.00;5036598;28;45276;-77
2023/06/09 02:38:23;;;;;;;;;25.67;25.33;;;;;20.45;76.06;100788.97;5036253;28;45544;-78
2023/06/09 02:40:49;;;;;;;;;28.67;26.67;;;;;20.45;76.07;100795.16;5036498;28;46064;-77
2023/06/09 02:43:14;;;;;;;;;28.33;24.67;;;;;20.45;76.52;100794.34;5035738;28;45459;-78
2023/06/09 02:45:40;;;;;;;;;25.33;25.00;;;;;20.30;77.23;100776.84;5055121;28;45769;-78
2023/06/09 02:48:06;;;;;;;;;27.67;27.00;;;;;20.33;76.73;100796.25;5039519;28;45490;-78
2023/06/09 02:50:31;;;;;;;;;27.67;25.33;;;;;20.33;76.90;100795.38;5034129;28;45436;-77
2023/06/09 02:52:56;;;;;;;;;21.33;21.33;;;;;20.25;77.07;100785.31;5046814;28;45385;-77
2023/06/09 02:55:22;;;;;;;;;29.33;29.33;;;;;20.25;76.55;100788.81;5043831;28;45369;-77
2023/06/09 02:57:47;;;;;;;;;28.33;27.00;;;;;20.21;78.93;100786.56;5056567;28;45530;-78
2023/06/09 03:00:14;;;;;;;;;25.67;25.67;;;;;20.13;77.32;100776.47;5042360;28;45284;-77
2023/06/09 03:02:41;;;;;;;;;28.67;25.33;;;;;20.18;77.04;100789.50;5046160;28;45268;-78
2023/06/09 03:05:07;;;;;;;;;29.67;28.33;;;;;20.18;77.83;100789.50;5054012;28;45517;-78
2023/06/09 03:07:32;;;;;;;;;31.00;27.00;;;;;20.06;77.64;100780.66;5060912;28;45232;-77
2023/06/09 03:09:59;;;;;;;;;29.33;26.33;;;;;20.07;78.24;100779.69;5061503;28;45606;-78
2023/06/09 03:12:24;;;;;;;;;23.67;23.67;;;;;20.06;79.09;100799.47;5060352;28;45383;-78
2023/06/09 03:14:50;;;;;;;;;26.67;24.00;;;;;20.08;78.86;100800.22;5043962;28;45449;-78
2023/06/09 03:17:17;;;;;;;;;30.67;26.33;;;;;19.97;79.38;100775.25;5056452;28;45554;-78
2023/06/09 03:19:42;;;;;;;;;26.67;26.00;;;;;20.01;80.39;100796.34;5049414;28;46258;-78
2023/06/09 03:22:08;;;;;;;;;27.33;25.00;;;;;19.94;80.37;100795.16;5049992;28;45407;-77
2023/06/09 03:24:33;;;;;;;;;30.67;26.67;;;;;19.96;79.86;100798.56;5057442;28;45280;-78
2023/06/09 03:26:59;;;;;;;;;26.67;26.67;;;;;19.93;79.74;100796.13;5081219;28;45538;-78
2023/06/09 03:29:24;;;;;;;;;31.00;28.33;;;;;19.85;80.40;100789.75;5053334;28;46239;-77
2023/06/09 03:31:49;;;;;;;;;28.00;26.67;;;;;19.90;80.80;100803.59;5063986;28;45469;-77
2023/06/09 03:34:15;;;;;;;;;27.00;25.67;;;;;19.73;79.70;100781.75;5074858;28;45352;-78
2023/06/09 03:36:41;;;;;;;;;27.33;27.33;;;;;19.81;80.15;100793.66;5059158;28;45456;-77
2023/06/09 03:39:07;;;;;;;;;29.67;28.67;;;;;19.76;80.65;100800.28;5037371;28;47452;-77
2023/06/09 03:41:33;;;;;;;;;28.33;26.33;;;;;19.75;81.84;100790.53;5060926;28;45473;-78
2023/06/09 03:43:58;;;;;;;;;30.00;26.00;;;;;19.73;82.18;100783.59;5062277;28;45357;-77
2023/06/09 03:46:24;;;;;;;;;23.33;22.33;;;;;19.73;81.40;100797.84;5075299;28;45494;-77
2023/06/09 03:48:49;;;;;;;;;26.67;25.33;;;;;19.62;82.16;100786.34;5069759;28;45401;-78
2023/06/09 03:51:16;;;;;;;;;32.00;26.00;;;;;19.65;81.00;100788.75;5062075;28;45309;-78
2023/06/09 03:53:41;;;;;;;;;24.33;21.33;;;;;19.62;81.92;100791.72;5053536;28;45369;-77
2023/06/09 03:56:07;;;;;;;;;27.67;27.67;;;;;19.54;81.56;100783.44;5047651;28;45340;-77
2023/06/09 03:58:33;;;;;;;;;23.00;22.00;;;;;19.51;82.10;100789.94;5065149;28;45359;-78
2023/06/09 04:00:58;;;;;;;;;24.67;23.67;;;;;19.53;81.98;100792.50;5040927;28;45320;-77
2023/06/09 04:03:24;;;;;;;;;30.33;27.33;;;;;19.51;81.78;100795.28;5070906;28;45265;-77
2023/06/09 04:05:50;;;;;;;;;30.00;25.00;;;;;19.51;83.38;100794.44;5041744;28;45230;-77
2023/06/09 04:08:15;;;;;;;;;28.33;25.00;;;;;19.54;83.89;100799.53;5069872;28;45888;-77
2023/06/09 04:10:41;;;;;;;;;26.00;24.00;;;;;19.54;83.88;100788.81;5059344;28;45357;-78
2023/06/09 04:13:11;;;;;;;;;27.33;24.67;;;;;19.46;82.26;100780.56;5062139;28;45412;-77
2023/06/09 04:15:36;;;;;;;;;26.33;24.33;;;;;19.39;82.19;100779.34;5071221;28;45455;-77
2023/06/09 04:18:03;;;;;;;;;25.67;23.33;;;;;19.52;82.97;100788.09;5059247;28;58343;-77
2023/06/09 04:20:29;;;;;;;;;23.33;23.00;;;;;19.43;82.29;100775.47;5039525;28;45482;-77
2023/06/09 04:22:55;;;;;;;;;26.33;24.00;;;;;19.53;82.97;100787.13;5058098;28;45380;-77
2023/06/09 04:25:25;;;;;;;;;24.00;21.33;;;;;19.53;82.50;100779.09;5046308;28;45602;-77
2023/06/09 04:27:54;;;;;;;;;31.00;26.33;;;;;19.51;81.59;100786.38;5055092;28;46298;-77
2023/06/09 04:30:24;;;;;;;;;26.67;24.67;;;;;19.54;80.86;100786.13;5051386;28;45369;-77
2023/06/09 04:32:53;;;;;;;;;26.00;24.33;;;;;19.47;82.79;100780.44;5043444;28;45381;-77
2023/06/09 04:35:23;;;;;;;;;26.33;26.00;;;;;19.48;81.90;100784.81;5061872;28;45473;-77
2023/06/09 04:37:49;;;;;;;;;29.67;27.33;;;;;19.50;81.41;100792.75;5063502;28;45506;-78
2023/06/09 04:40:21;;;;;;;;;26.33;25.67;;;;;19.65;81.07;100804.88;5058933;28;45372;-79
2023/06/09 04:42:56;;;;;;;;;27.67;27.00;;;;;19.67;80.89;100810.94;5042767;28;45484;-79
2023/06/09 04:45:27;;;;;;;;;28.00;25.67;;;;;19.55;80.42;100779.78;5072786;28;45405;-80
2023/06/09 04:47:53;;;;;;;;;25.33;21.67;;;;;19.63;79.66;100794.25;5063928;28;45506;-79
2023/06/09 04:50:19;;;;;;;;;26.33;24.67;;;;;19.64;80.55;100795.09;5058225;28;45288;-79
2023/06/09 04:52:45;;;;;;;;;26.33;25.33;;;;;19.75;80.01;100805.78;5063321;28;45443;-80
2023/06/09 04:55:13;;;;;;;;;26.33;26.33;;;;;19.76;79.38;100799.44;5049101;28;45485;-79
2023/06/09 04:57:39;;;;;;;;;28.00;23.00;;;;;19.74;79.49;100806.75;5078321;28;45391;-79
2023/06/09 05:00:07;;;;;;;;;30.67;26.67;;;;;19.87;78.05;100815.47;5058717;28;45443;-79
2023/06/09 05:02:33;;;;;;;;;26.67;26.67;;;;;19.88;79.19;100809.13;5059515;28;45434;-79
2023/06/09 05:04:59;;;;;;;;;31.33;28.00;;;;;19.91;78.31;100811.53;5058561;28;45239;-79
2023/06/09 05:07:24;;;;;;;;;27.67;25.67;;;;;19.99;78.37;100816.25;5072241;28;46148;-79
2023/06/09 05:09:50;;;;;;;;;26.00;24.67;;;;;20.04;77.92;100819.38;5057863;28;45349;-79
2023/06/09 05:12:15;;;;;;;;;24.67;23.33;;;;;20.01;77.05;100806.22;5059468;28;45333;-79
2023/06/09 05:14:42;;;;;;;;;26.33;24.33;;;;;20.05;77.38;100805.84;5054050;28;45537;-79
2023/06/09 05:17:07;;;;;;;;;26.00;23.33;;;;;20.09;78.00;100801.06;5058682;28;46191;-79
2023/06/09 05:19:32;;;;;;;;;26.00;26.00;;;;;20.19;79.22;100805.47;5057748;28;45515;-79
2023/06/09 05:21:58;;;;;;;;;25.33;24.33;;;;;20.24;76.92;100802.41;5057870;28;45494;-79
2023/06/09 05:24:23;;;;;;;;;28.00;26.00;;;;;20.29;76.78;100813.63;5038017;28;45846;-79
2023/06/09 05:26:48;;;;;;;;;27.67;25.00;;;;;20.33;77.32;100804.31;5067015;28;45334;-79
2023/06/09 05:29:13;;;;;;;;;30.67;24.33;;;;;20.46;78.89;100812.13;5044143;28;45396;-78
2023/06/09 05:31:39;;;;;;;;;25.67;25.67;;;;;20.46;76.71;100806.75;5062089;28;46111;-79
2023/06/09 05:34:04;;;;;;;;;30.00;27.33;;;;;20.58;76.42;100811.06;5043400;28;45822;-79
2023/06/09 05:36:30;;;;;;;;;26.67;23.00;;;;;20.58;76.30;100809.22;5048673;28;45477;-80
2023/06/09 05:38:55;;;;;;;;;29.33;24.67;;;;;20.71;75.93;100814.38;5053582;28;56296;-80
2023/06/09 05:41:20;;;;;;;;;29.00;26.67;;;;;20.69;76.36;100808.25;5066196;28;49767;-79
2023/06/09 05:43:45;;;;;;;;;26.00;25.00;;;;;20.78;75.64;100802.91;5066565;28;45354;-80
2023/06/09 05:46:11;;;;;;;;;30.67;28.33;;;;;20.93;73.29;100815.97;5068742;28;45431;-79
2023/06/09 05:48:36;;;;;;;;;24.33;24.33;;;;;21.02;73.24;100826.75;5062212;28;45431;-80
2023/06/09 05:51:01;;;;;;;;;23.00;22.67;;;;;21.08;72.87;100817.25;5042664;28;45577;-80
2023/06/09 05:53:27;;;;;;;;;23.00;23.00;;;;;21.09;74.02;100816.28;5056526;28;45578;-79
2023/06/09 05:55:53;;;;;;;;;25.00;23.00;;;;;21.24;72.29;100837.28;5066682;28;46026;-79
2023/06/09 05:58:18;;;;;;;;;21.33;21.33;;;;;21.30;72.02;100834.03;5042278;28;45468;-80
2023/06/09 06:00:44;;;;;;;;;27.33;25.00;;;;;21.34;71.83;100828.38;5061629;28;45822;-79
2023/06/09 06:03:10;;;;;;;;;26.33;24.33;;;;;21.47;72.56;100831.63;5060071;28;45629;-78
2023/06/09 06:05:36;;;;;;;;;22.67;22.33;;;;;21.54;70.88;100830.09;5064422;28;46173;-79
2023/06/09 06:08:02;;;;;;;;;27.33;24.00;;;;;21.61;71.55;100832.06;5058228;28;45470;-79
2023/06/09 06:10:27;;;;;;;;;25.33;23.33;;;;;21.65;69.57;100822.72;5058150;28;45295;-79
2023/06/09 06:12:54;;;;;;;;;27.67;25.67;;;;;21.71;70.10;100824.00;5058048;28;45486;-80
2023/06/09 06:15:20;;;;;;;;;22.33;22.33;;;;;21.84;72.21;100832.63;5071420;28;45456;-79
2023/06/09 06:17:45;;;;;;;;;21.67;21.67;;;;;21.90;69.09;100832.06;5067619;28;45537;-81
2023/06/09 06:20:12;;;;;;;;;21.33;20.33;;;;;21.92;67.92;100830.09;5061077;28;45338;-81
2023/06/09 06:22:37;;;;;;;;;24.33;24.33;;;;;21.91;67.41;100823.00;5048092;28;45636;-80
2023/06/09 06:25:03;;;;;;;;;25.33;22.00;;;;;22.04;67.65;100823.56;5038145;28;45464;-79
2023/06/09 06:27:28;;;;;;;;;28.33;23.00;;;;;22.11;67.06;100823.81;5058969;28;45394;-79
2023/06/09 06:29:54;;;;;;;;;25.67;25.67;;;;;22.23;68.13;100823.50;5052658;28;45276;-79
2023/06/09 06:32:19;;;;;;;;;30.00;25.67;;;;;22.35;67.82;100820.63;5072582;28;52152;-80
2023/06/09 06:34:45;;;;;;;;;18.33;18.33;;;;;22.35;65.46;100816.06;5053964;28;45363;-79
2023/06/09 06:37:11;;;;;;;;;26.67;22.33;;;;;22.39;65.44;100814.78;5065206;28;45296;-79
2023/06/09 06:39:36;;;;;;;;;26.00;24.33;;;;;22.54;65.89;100820.56;5053869;28;45327;-79
2023/06/09 06:42:01;;;;;;;;;24.33;23.33;;;;;22.51;64.66;100799.28;5060528;28;51541;-79
2023/06/09 06:44:27;;;;;;;;;23.33;21.67;;;;;22.72;66.05;100819.63;5081848;28;46441;-79
2023/06/09 06:46:52;;;;;;;;;24.00;24.00;;;;;22.78;63.66;100807.38;5055864;28;45404;-79
2023/06/09 06:49:17;;;;;;;;;23.67;21.67;;;;;22.81;63.87;100805.25;5061328;28;45486;-79
2023/06/09 06:51:43;;;;;;;;;22.33;20.67;;;;;22.96;63.14;100821.78;5065622;28;45305;-79
2023/06/09 06:54:08;;;;;;;;;24.67;22.67;;;;;22.92;62.04;100806.03;5075049;28;45589;-80
2023/06/09 06:56:33;;;;;;;;;25.67;23.00;;;;;23.07;63.29;100823.44;5067257;28;45379;-80
2023/06/09 06:58:59;;;;;;;;;25.00;22.33;;;;;23.22;62.25;100827.28;5027722;28;50051;-79
2023/06/09 07:01:25;;;;;;;;;22.33;20.33;;;;;23.28;62.68;100819.44;5040280;28;45485;-79
2023/06/09 07:03:50;;;;;;;;;24.33;21.67;;;;;23.45;60.68;100817.78;5049792;28;45445;-78
2023/06/09 07:06:16;;;;;;;;;18.67;18.67;;;;;23.56;61.17;100816.69;5063961;28;45391;-78
2023/06/09 07:08:42;;;;;;;;;25.00;23.00;;;;;23.60;60.51;100818.06;5049005;28;45488;-79
2023/06/09 07:11:08;;;;;;;;;18.33;17.33;;;;;23.60;61.91;100807.25;5063195;28;45441;-79
2023/06/09 07:13:33;;;;;;;;;22.33;21.33;;;;;23.84;59.50;100826.38;5057165;28;46210;-78
2023/06/09 07:16:00;;;;;;;;;19.33;16.33;;;;;23.98;59.42;100823.13;5060181;28;45352;-79
2023/06/09 07:18:26;;;;;;;;;27.00;24.67;;;;;24.07;58.77;100818.59;5046617;28;45336;-79
2023/06/09 07:20:51;;;;;;;;;20.00;20.00;;;;;24.22;58.54;100834.09;5060353;28;45759;-78
2023/06/09 07:23:17;;;;;;;;;23.00;21.00;;;;;24.35;57.81;100821.00;5060077;28;46320;-79
2023/06/09 07:25:42;;;;;;;;;18.00;17.33;;;;;24.47;58.43;100816.19;5037513;28;45249;-80
2023/06/09 07:28:07;;;;;;;;;19.67;19.00;;;;;24.52;57.53;100805.72;5058781;28;45383;-79
2023/06/09 07:30:33;;;;;;;;;24.00;21.00;;;;;24.77;56.62;100828.31;5042141;28;49269;-79
2023/06/09 07:32:58;;;;;;;;;22.00;20.33;;;;;24.81;56.87;100819.69;5057614;28;46118;-79
2023/06/09 07:35:24;;;;;;;;;17.33;17.33;;;;;25.02;55.64;100845.50;5070125;28;45458;-79
2023/06/09 07:37:50;;;;;;;;;16.67;16.00;;;;;25.04;55.37;100828.09;5058457;28;45485;-79
2023/06/09 07:40:15;;;;;;;;;19.33;18.00;;;;;25.21;54.53;100842.53;5061882;28;45701;-79
2023/06/09 07:42:41;;;;;;;;;18.33;18.33;;;;;25.24;53.75;100844.91;5073229;28;45351;-79
2023/06/09 07:45:07;;;;;;;;;21.00;19.00;;;;;25.34;54.43;100838.31;5044597;28;45521;-79
2023/06/09 07:47:32;;;;;;;;;21.00;19.33;;;;;25.47;53.91;100848.66;5073503;27;45402;-79
2023/06/09 07:49:58;;;;;;;;;17.67;15.00;;;;;25.43;52.96;100833.75;5072385;28;45318;-79
2023/06/09 07:52:23;;;;;;;;;20.00;17.67;;;;;25.42;53.75;100823.97;5052170;28;46133;-78
2023/06/09 07:54:48;;;;;;;;;21.67;19.00;;;;;25.66;53.11;100832.13;5066113;28;45416;-78
2023/06/09 07:57:15;;;;;;;;;21.33;19.00;;;;;25.71;53.00;100831.63;5060931;28;45301;-79
2023/06/09 07:59:41;;;;;;;;;21.67;20.00;;;;;25.87;52.93;100827.06;5055753;28;45386;-78
2023/06/09 08:02:06;;;;;;;;;18.33;18.33;;;;;26.05;52.97;100826.84;5059081;28;46179;-79
2023/06/09 08:04:32;;;;;;;;;21.67;19.67;;;;;26.21;52.98;100818.72;5062783;28;45343;-79
2023/06/09 08:07:00;;;;;;;;;18.00;15.00;;;;;26.38;52.34;100812.25;5076797;28;45270;-79
2023/06/09 08:09:26;;;;;;;;;19.00;18.00;;;;;26.61;50.56;100827.75;5060597;28;45526;-79
2023/06/09 08:11:52;;;;;;;;;16.33;16.33;;;;;26.75;51.22;100824.31;5064816;28;45540;-79
2023/06/09 08:14:17;;;;;;;;;24.67;20.33;;;;;26.89;50.78;100826.34;5067128;28;45455;-79
2023/06/09 08:16:43;;;;;;;;;19.00;18.00;;;;;26.92;50.24;100824.13;5059842;28;45302;-79
2023/06/09 08:19:09;;;;;;;;;20.33;19.67;;;;;27.00;49.88;100817.78;5071620;28;45372;-80
2023/06/09 08:21:42;;;;;;;;;16.33;15.33;;;;;27.04;49.55;100805.53;5044234;28;47447;-79
2023/06/09 08:24:08;;;;;;;;;18.67;17.67;;;;;27.06;49.21;100808.09;5079908;28;45344;-79
2023/06/09 08:26:33;;;;;;;;;22.00;19.67;;;;;27.26;47.99;100809.31;5058086;28;45299;-79
2023/06/09 08:28:58;;;;;;;;;23.67;20.00;;;;;27.23;49.21;100805.09;5069691;28;45451;-79
2023/06/09 08:31:24;;;;;;;;;20.67;16.67;;;;;27.35;49.58;100802.81;5071300;28;57355;-79
2023/06/09 08:33:50;;;;;;;;;24.00;21.33;;;;;27.47;48.69;100798.66;5069308;28;45364;-79
2023/06/09 08:36:15;;;;;;;;;21.33;19.00;;;;;27.47;47.75;100774.22;5070230;28;45368;-78
2023/06/09 08:38:41;;;;;;;;;20.33;19.33;;;;;27.63;47.83;100792.25;5047178;28;45526;-79
2023/06/09 08:41:08;;;;;;;;;17.00;17.00;;;;;27.80;47.96;100802.81;5059786;28;45673;-79
2023/06/09 08:43:34;;;;;;;;;20.67;18.67;;;;;27.94;47.97;100801.97;5040798;28;45518;-79
2023/06/09 08:46:02;;;;;;;;;22.00;20.00;;;;;28.08;48.27;100800.34;5037456;28;45387;-79
2023/06/09 08:48:30;;;;;;;;;16.00;15.33;;;;;28.13;46.95;100797.94;5063976;28;45388;-79
2023/06/09 08:50:57;;;;;;;;;19.67;17.67;;;;;28.23;46.84;100787.63;5067458;28;45377;-79
2023/06/09 08:53:23;;;;;;;;;17.00;16.67;;;;;28.25;47.04;100781.97;5076578;28;45345;-79
2023/06/09 08:55:50;;;;;;;;;22.67;19.33;;;;;28.33;46.60;100774.59;5061576;28;45361;-79
2023/06/09 08:58:15;;;;;;;;;20.67;19.33;;;;;28.44;46.74;100781.41;5063608;28;45949;-79
2023/06/09 09:00:42;;;;;;;;;23.67;20.00;;;;;28.60;46.17;100767.59;5060446;28;47494;-78
2023/06/09 09:03:07;;;;;;;;;16.00;15.33;;;;;28.68;45.91;100756.66;5058754;28;45352;-79
2023/06/09 09:05:33;;;;;;;;;17.67;16.00;;;;;28.89;45.05;100772.22;5079817;28;45353;-79
2023/06/09 09:07:58;;;;;;;;;19.00;17.00;;;;;29.07;44.98;100767.16;5046766;28;45466;-78
2023/06/09 09:10:23;;;;;;;;;17.33;15.67;;;;;29.27;44.74;100772.84;5049928;28;47790;-79
2023/06/09 09:12:51;;;;;;;;;21.67;20.67;;;;;29.43;45.00;100788.94;5063801;28;45289;-79
2023/06/09 09:15:18;;;;;;;;;19.33;19.33;;;;;29.45;44.14;100776.81;5058585;28;45411;-79
2023/06/09 09:17:47;;;;;;;;;19.67;19.00;;;;;29.60;42.76;100782.19;5054208;28;45435;-78
2023/06/09 09:20:14;;;;;;;;;19.33;16.33;;;;;29.66;44.13;100769.66;5063759;28;45328;-78
2023/06/09 09:22:50;;;;;;;;;19.67;16.33;;;;;29.76;43.86;100776.47;5031986;28;45303;-78
2023/06/09 09:25:29;;;;;;;;;20.67;20.67;;;;;29.76;44.28;100767.44;5059581;28;45364;-79
2023/06/09 09:28:06;;;;;;;;;18.33;18.33;;;;;29.91;44.44;100770.94;5077468;28;45448;-78
2023/06/09 09:30:51;;;;;;;;;17.67;15.33;;;;;30.04;43.58;100768.28;5053095;28;46527;-79
2023/06/09 09:33:24;;;;;;;;;20.00;19.33;;;;;30.10;42.75;100756.59;5055339;28;45344;-79
2023/06/09 09:35:54;;;;;;;;;18.67;18.00;;;;;30.20;42.21;100759.78;5076288;28;45534;-78
2023/06/09 09:38:22;;;;;;;;;5.00;3.00;;;;;30.33;42.82;100761.78;5039887;28;45542;-78
2023/06/09 09:40:50;;;;;;;;;17.00;17.00;;;;;30.50;41.74;100754.13;5059526;28;45429;-79
2023/06/09 09:43:16;;;;;;;;;23.33;21.00;;;;;30.71;41.91;100756.72;5037571;28;45349;-78
2023/06/09 09:45:50;;;;;;;;;18.67;15.67;;;;;30.68;42.14;100748.94;5059822;28;45392;-78
2023/06/09 09:48:21;;;;;;;;;18.33;16.00;;;;;30.81;40.33;100758.03;5057964;28;45335;-78
2023/06/09 09:50:51;;;;;;;;;18.33;17.33;;;;;30.90;40.61;100759.53;5060305;28;45277;-79
2023/06/09 09:53:16;;;;;;;;;20.33;18.00;;;;;30.85;40.97;100739.34;5081364;28;45371;-79
2023/06/09 09:55:43;;;;;;;;;17.67;17.67;;;;;31.09;40.91;100754.34;5049138;28;45581;-79
2023/06/09 09:58:10;;;;;;;;;20.00;17.00;;;;;31.13;40.59;100742.81;5070447;28;45311;-79
2023/06/09 10:00:37;;;;;;;;;18.33;18.00;;;;;31.20;38.45;100749.13;5042882;28;45395;-79
2023/06/09 10:03:17;;;;;;;;;17.33;17.33;;;;;31.39;40.69;100742.84;5066619;28;45293;-79
2023/06/09 10:05:49;;;;;;;;;20.00;18.00;;;;;31.53;39.91;100745.63;5042889;28;45461;-79
2023/06/09 10:08:21;;;;;;;;;21.33;17.00;;;;;31.66;38.63;100742.88;5055249;28;45336;-79
2023/06/09 10:10:48;;;;;;;;;15.67;15.67;;;;;31.72;39.93;100744.78;5052007;28;46056;-80
2023/06/09 10:13:14;;;;;;;;;19.00;16.00;;;;;31.70;39.48;100730.47;5044541;28;45457;-79
2023/06/09 10:15:45;;;;;;;;;19.33;15.67;;;;;31.71;39.41;100733.00;5066456;28;45348;-79
2023/06/09 10:18:12;;;;;;;;;17.33;16.67;;;;;31.90;38.09;100732.13;5070558;28;45256;-80
2023/06/09 10:20:40;;;;;;;;;18.00;18.00;;;;;31.91;37.69;100727.50;5058874;28;46463;-79
2023/06/09 10:23:06;;;;;;;;;23.67;16.67;;;;;31.90;36.42;100712.16;5072334;28;45627;-79
2023/06/09 10:25:32;;;;;;;;;18.67;16.67;;;;;32.00;38.02;100718.03;5078466;28;45456;-79
2023/06/09 10:27:57;;;;;;;;;16.00;15.33;;;;;32.18;37.23;100728.31;5075527;28;45458;-79
2023/06/09 10:30:23;;;;;;;;;16.00;16.00;;;;;32.35;37.82;100718.59;5080040;28;45357;-79
2023/06/09 10:33:11;;;;;;;;;19.33;16.67;;;;;32.57;37.06;100730.94;5043371;28;45390;-79
2023/06/09 10:35:38;;;;;;;;;18.33;15.33;;;;;32.58;36.08;100710.72;5062186;28;45338;-79
2023/06/09 10:38:30;;;;;;;;;19.00;18.67;;;;;32.78;36.87;100716.97;5055898;28;45504;-79
2023/06/09 10:41:11;;;;;;;;;19.00;17.67;;;;;32.91;35.54;100725.09;5067520;28;48277;-79
2023/06/09 10:43:39;;;;;;;;;17.67;16.00;;;;;33.10;34.63;100722.47;5050111;28;45467;-79
2023/06/09 10:46:05;;;;;;;;;14.33;14.33;;;;;33.17;34.64;100715.06;5047242;28;45315;-79
2023/06/09 10:48:44;;;;;;;;;15.33;14.33;;;;;33.27;34.92;100727.22;5074921;28;45783;-80
2023/06/09 10:51:31;;;;;;;;;14.33;14.00;;;;;33.32;35.72;100726.53;5039482;28;47155;-79
2023/06/09 10:54:17;;;;;;;;;15.67;13.67;;;;;33.48;35.91;100718.59;5076866;28;45379;-80
2023/06/09 10:56:52;;;;;;;;;16.33;16.33;;;;;33.62;35.57;100718.50;5033923;28;45401;-79
2023/06/09 10:59:23;;;;;;;;;18.00;15.33;;;;;33.77;34.94;100725.34;5068370;28;45710;-80
2023/06/09 11:02:01;;;;;;;;;13.33;13.33;;;;;33.86;33.54;100723.16;5062949;28;45635;-79
2023/06/09 11:04:44;;;;;;;;;13.00;13.00;;;;;34.00;32.94;100721.94;5048279;28;45549;-79
2023/06/09 11:07:16;;;;;;;;;13.00;12.67;;;;;34.16;32.34;100721.41;5054342;28;45416;-79
2023/06/09 11:09:47;;;;;;;;;12.00;12.00;;;;;34.28;32.77;100722.31;5081362;28;45372;-79
2023/06/09 11:12:24;;;;;;;;;14.33;13.00;;;;;34.23;32.10;100722.13;5062956;28;46491;-80